Sheppard Air Force Base-Wichita Falls Municipal Airport
KSPS : now visible

Airfield :











YOU CAN JOIN US ON...

 
LOGIN :

Register | Disclaimer

   EN    FR    IT 

 









Legend :    VFR   Marginal VFR   IFR   Intensive IFR   Very Intensive IFR
Visi :
Ceiling :
>= 8 km
>= 3000ft
5 to 8 km
1000 to 3000 ft
1500m to 5 km
500 to 1000 ft
800 to 1500m
200 to 500 ft
< 800m
< 200 ft
Symbols :   Thunderstorms  Fog  Heavy snow  Heavy precipitations  Wind > 20 kt






- Airport Elevation : 1019 ft
- IATA code : SPS


KSPS - Sheppard Air Force Base-Wichita Falls Municipal

CURRENT METAR :
  • 130352Z AUTO 10005KT 10SM CLR 05/03 A2999 RMK AO2 SLP155 T00500028

EXPIRED METARs :
  • 130252Z AUTO 09005KT 10SM CLR 06/03 A3001 RMK AO2 SLP163 T00610028 58001
  • 130152Z AUTO 11006KT 10SM CLR 07/03 A3001 RMK AO2 SLP166 T00720033

TAF KSPS
Valid from the 13 at 00:00 until the 14 at 00:00 UTC


122320Z 1300/1324 14005KT P6SM SCT250
FM130600 VRB03KT P6SM FEW250
TEMPO 1310/1314 3SM BR
FM131800 25006KT P6SM SCT250



MET'MAP, your aeronautical weather chart ! - Copyright ORBIFLY December 2007 - Disclaimer

ORBIFLY MET'MAP TEAM :

Programming & Development : Alexandra Zaïnal
Concept & original design : Baudouin d'Aumeries
Assistance for programming : Marc-Olivier Méhu
Technical & hardware support : Manuel Goepfert

Contact : metmap@orbifly.com




SOURCES & CREDITS :

   NOAA       Earth
Advisory